Beattie, KS (66406)

9:46 PM CDT on May 23, 2017 (GMT -0500)
Southern Seneca | | Change Station
Active Advisory: Flood Warning Active Notice: Public Information Statement

Elev 1148 ft 39.83 °N, 96.07 °W | Updated 20 seconds ago

Mostly Cloudy
Mostly Cloudy
55.4 °F
Feels Like 55.4 °F
N
1.3
Wind Variable Wind from North
Gusts 2.7 mph

Today
High -- | Low -- °F
--% Chance of Precip.
Yesterday
High -- | Low -- °F
Precip. -- in
Pressure 29.86 in
Visibility 10.0 miles
Clouds Scattered Clouds 3900 ft
Scattered Clouds 4800 ft
Dew Point 48 °F
Humidity 77%
Rainfall 0.07 in
Snow Depth Not available.
6:04 AM 8:41 PM
Waning Crescent, 4% visible
METAR KBIE 240235Z AUTO 34008KT 10SM SCT039 SCT048 11/07 A2986 RMK AO2 T01080070
Pressure 29.86 in
Visibility 10.0 miles
Clouds Scattered Clouds 3900 ft
Scattered Clouds 4800 ft
Dew Point 48 °F
Humidity 77%
Rainfall 0.07 in
Snow Depth Not available.
6:04 AM 8:41 PM
Waning Crescent, 4% visible
METAR KBIE 240235Z AUTO 34008KT 10SM SCT039 SCT048 11/07 A2986 RMK AO2 T01080070

Get Your Daily Forecast Email!

Thanks for signing up!

Be on the lookout for a verification email in your inbox.

You'll start receiving severe weather alerts in your inbox..

×

10-Day Weather Forecast

Almanac

Astronomy

May. 23, 2017 Rise Set
Actual Time
Civil Twilight
Nautical Twilight
Astronomical Twilight
Moon
Length of Visible Light
Length of Day
Tomorrow will be .
, % of the Moon is Illuminated

Today's Extremes

State Highs State Lows

Community

WunderPhotos

Category 6

Welcome to Category 6. This is the collective home for Weather Underground's featured writeups by Dr. Jeff Masters (right), Bob Henson (left), Chris Burt, and other regular contributors.

Nearby

Air Quality

  Air Quality AQ Index Pollutant
Not available.

Snow Depth

Station Depth Elevation

Earthquake Activity

City Distance Mag. Time & Date
Minimum magnitude displayed is 2.5.

Coastal Water Temperatures

Place Temperature

Stations

Nearby Weather Stations

Station Location Temp. Windchill Dew Point Humidity Wind Precip. Elev Updated Type
                   

Watches & Warnings

Flood Warning
Issued: 3:35 PM CDT May. 23, 2017 – National Weather Service

The Flood Warning continues for
the big Blue River near Blue Rapids.
* Until Wednesday evening.
* At 3:15 PM Tuesday the stage was 29.8 feet.
* Flood stage is 26.0 feet.
* Minor flooding is occurring and minor flooding is forecast.
* Forecast... the river will continue to fall to below flood stage by
Wednesday morning.


Lat... Lon 3971 9666 3968 9658 3957 9655 3957 9659 3968 9669